Potosi, Missouri
Current Conditions -  °F | °C
As of 2:55 PM on Friday 21 Nov 2014 (Local Time) from KFAM Reporting Station
NA  
Wind Chill: 40°   Ceiling: NA
Heat Index: 45°   Visibility: 10mi
Dew Point: 25°   Wind: 9mph
Humidity: 46%   Direction: 80°E
Pressure: 30.29"   Gusts: NA
Location:  37.94°N, 90.79°W
Report Text: KFAM 212055Z AUTO 08008KT 10SM 07/M04 A3029 RMK AO1 57024
Loading
Personal Weather Stations






























Interactive Weather Map New forecast layout! Learn more

10-Day Weather Forecast

Advertisements
Track Severe Weather on mobile